Time;durP1;ratioP1;P1;durP2;ratioP2;P2;SDS_P1;SDS_P2;PMS_P1;PMS_P2;Temp;Humidity;BMP_temperature;BMP_pressure;BME280_temperature;BME280_humidity;BME280_pressure;Samples;Min_cycle;Max_cycle;Signal;HPM_P1;HPM_P2
2021/12/26 00:00:56;;;;;;;3.33;1.80;;;;;;;-3.62;82.20;100804.22;4990271;28;20085;-57
2021/12/26 00:03:22;;;;;;;2.93;2.27;;;;;;;-3.58;83.09;100795.25;4990325;28;20362;-58
2021/12/26 00:05:48;;;;;;;2.60;1.50;;;;;;;-3.57;83.04;100802.09;4990579;28;20487;-57
2021/12/26 00:08:13;;;;;;;2.57;1.70;;;;;;;-3.58;82.54;100800.31;4991596;28;20269;-55
2021/12/26 00:10:39;;;;;;;2.57;2.10;;;;;;;-3.59;82.44;100809.56;5009609;28;20483;-57
2021/12/26 00:13:04;;;;;;;3.10;1.90;;;;;;;-3.66;81.82;100805.59;5009811;28;20026;-58
2021/12/26 00:15:30;;;;;;;2.90;2.07;;;;;;;-3.69;81.44;100807.88;5009434;28;20302;-56
2021/12/26 00:17:55;;;;;;;4.17;2.30;;;;;;;-3.67;81.63;100800.41;5009606;28;20419;-56
2021/12/26 00:20:22;;;;;;;3.57;2.40;;;;;;;-3.66;82.42;100795.47;5010071;28;20033;-57
2021/12/26 00:22:47;;;;;;;2.17;1.97;;;;;;;-3.66;83.22;100795.47;5009400;28;20439;-57
2021/12/26 00:25:13;;;;;;;2.50;2.00;;;;;;;-3.65;82.83;100787.09;5009920;28;20397;-58
2021/12/26 00:27:39;;;;;;;3.00;2.10;;;;;;;-3.65;83.43;100784.56;5009817;28;20074;-58
2021/12/26 00:30:09;;;;;;;3.13;2.10;;;;;;;-3.65;82.95;100774.41;5009763;28;20030;-59
2021/12/26 00:32:35;;;;;;;4.30;2.60;;;;;;;-3.64;83.41;100791.41;5009695;28;20034;-58
2021/12/26 00:35:01;;;;;;;3.17;2.13;;;;;;;-3.65;83.70;100778.63;5009757;28;20021;-58
2021/12/26 00:37:26;;;;;;;2.53;1.80;;;;;;;-3.66;83.42;100785.31;5009977;28;20026;-59
2021/12/26 00:39:51;;;;;;;3.60;2.17;;;;;;;-3.70;83.59;100777.28;5009526;28;20030;-58
2021/12/26 00:42:17;;;;;;;3.57;2.37;;;;;;;-3.71;83.53;100778.97;5009550;28;20041;-58
2021/12/26 00:44:42;;;;;;;2.70;2.03;;;;;;;-3.71;83.80;100781.50;5009555;28;20414;-59
2021/12/26 00:47:10;;;;;;;3.03;2.07;;;;;;;-3.71;83.10;100778.97;5009372;28;20022;-57
2021/12/26 00:49:36;;;;;;;2.60;1.80;;;;;;;-3.71;83.00;100773.91;5009701;28;20022;-60
2021/12/26 00:52:01;;;;;;;2.73;1.97;;;;;;;-3.74;83.28;100777.03;5009652;28;20075;-56
2021/12/26 00:54:27;;;;;;;2.30;1.93;;;;;;;-3.74;83.43;100774.50;5009919;28;20026;-58
2021/12/26 00:56:52;;;;;;;2.70;1.77;;;;;;;-3.72;83.29;100777.16;5009708;28;20045;-57
2021/12/26 00:59:17;;;;;;;3.47;2.00;;;;;;;-3.75;83.73;100776.91;5009349;28;20077;-57
2021/12/26 01:01:43;;;;;;;2.93;2.07;;;;;;;-3.76;83.65;100776.00;5009293;28;20022;-57
2021/12/26 01:04:11;;;;;;;5.07;2.20;;;;;;;-3.79;84.15;100779.91;5009802;28;20471;-58
2021/12/26 01:06:37;;;;;;;3.27;2.23;;;;;;;-3.77;84.13;100780.94;5009826;28;20423;-57
2021/12/26 01:09:08;;;;;;;2.70;1.77;;;;;;;-3.80;83.41;100778.13;5009547;28;20058;-58
2021/12/26 01:11:48;;;;;;;5.20;2.20;;;;;;;-3.77;84.17;100779.31;5009249;28;20111;-58
2021/12/26 01:14:15;;;;;;;2.58;2.00;;;;;;;-3.72;84.54;100781.38;5009201;28;20029;-58
2021/12/26 01:16:41;;;;;;;3.77;2.07;;;;;;;-3.70;85.32;100785.78;5009331;28;20462;-59
2021/12/26 01:19:12;;;;;;;2.87;1.80;;;;;;;-3.67;85.28;100787.72;5009521;28;20025;-59
2021/12/26 01:21:39;;;;;;;2.80;2.13;;;;;;;-3.66;85.37;100784.44;5009656;28;20026;-57
2021/12/26 01:24:08;;;;;;;2.33;1.73;;;;;;;-3.63;85.23;100787.22;5009457;28;20025;-57
2021/12/26 01:26:33;;;;;;;2.50;2.13;;;;;;;-3.59;85.67;100784.22;5009331;28;20030;-58
2021/12/26 01:28:59;;;;;;;4.67;2.77;;;;;;;-3.58;85.85;100780.91;5012839;28;20022;-57
2021/12/26 01:31:25;;;;;;;2.67;1.93;;;;;;;-3.55;85.50;100775.25;5012849;28;20030;-57
2021/12/26 01:37:12;;;;;;;3.08;2.50;;;;;;;-3.53;84.22;100778.81;5012600;28;20536;-57
2021/12/26 01:39:37;;;;;;;4.90;2.10;;;;;;;-3.55;84.07;100776.13;5012618;28;20057;-57
2021/12/26 01:42:04;;;;;;;3.13;2.40;;;;;;;-3.52;84.17;100776.41;5012395;28;20441;-58
2021/12/26 01:44:30;;;;;;;3.20;2.63;;;;;;;-3.51;85.54;100774.75;5012723;28;20393;-58
2021/12/26 01:46:56;;;;;;;3.53;2.20;;;;;;;-3.53;83.47;100759.44;5012413;28;20056;-58
2021/12/26 01:49:25;;;;;;;4.83;2.20;;;;;;;-3.50;84.58;100763.84;5012466;28;20364;-56
2021/12/26 01:51:54;;;;;;;3.17;2.27;;;;;;;-3.48;84.52;100762.34;5012556;28;20168;-58
2021/12/26 01:57:10;;;;;;;4.67;2.33;;;;;;;-3.48;83.83;100762.34;5012527;28;20033;-57
2021/12/26 01:59:36;;;;;;;3.13;2.37;;;;;;;-3.47;84.14;100770.84;5011779;28;20038;-57
2021/12/26 02:02:02;;;;;;;4.97;2.90;;;;;;;-3.46;83.70;100770.09;5011895;28;20035;-59
2021/12/26 02:04:28;;;;;;;3.37;2.33;;;;;;;-3.48;83.01;100777.56;5012258;28;20458;-57
2021/12/26 02:06:59;;;;;;;3.13;2.23;;;;;;;-3.51;83.34;100765.50;5011914;28;20083;-57
2021/12/26 02:09:25;;;;;;;3.53;2.43;;;;;;;-3.52;83.28;100771.34;5012104;28;20397;-57
2021/12/26 02:11:52;;;;;;;4.17;2.50;;;;;;;-3.50;83.29;100758.78;5010817;28;20032;-58
2021/12/26 02:14:17;;;;;;;3.17;2.47;;;;;;;-3.51;83.33;100762.09;5012413;28;20045;-59
2021/12/26 02:16:43;;;;;;;4.33;2.30;;;;;;;-3.47;84.24;100763.25;5012004;28;20438;-58
2021/12/26 02:19:08;;;;;;;5.33;2.60;;;;;;;-3.48;83.07;100757.28;5012081;28;20301;-56
2021/12/26 02:24:27;;;;;;;3.70;2.00;;;;;;;-3.51;82.32;100762.09;5012275;28;20445;-56
2021/12/26 02:29:41;;;;;;;4.60;2.57;;;;;;;-3.56;82.83;100759.13;5012060;28;20405;-57
2021/12/26 02:32:07;;;;;;;5.27;3.00;;;;;;;-3.56;82.57;100760.81;5026191;28;20112;-58
2021/12/26 02:34:33;;;;;;;4.00;2.20;;;;;;;-3.55;82.12;100757.50;5012187;28;20060;-58
2021/12/26 02:36:58;;;;;;;5.20;2.40;;;;;;;-3.56;82.29;100751.53;5011647;28;20422;-57
2021/12/26 02:39:24;;;;;;;4.33;2.40;;;;;;;-3.56;83.09;100746.47;5011009;28;20041;-58
2021/12/26 02:41:49;;;;;;;4.13;2.53;;;;;;;-3.57;82.29;100741.28;5011406;28;20025;-57
2021/12/26 02:44:15;;;;;;;4.90;2.57;;;;;;;-3.54;84.12;100736.47;5011447;28;20100;-58
2021/12/26 02:46:40;;;;;;;5.03;2.50;;;;;;;-3.52;83.81;100735.84;5010962;28;20120;-58
2021/12/26 02:49:06;;;;;;;3.57;2.80;;;;;;;-3.50;83.99;100738.50;5011927;28;20165;-58
2021/12/26 02:51:32;;;;;;;3.30;2.50;;;;;;;-3.49;82.79;100737.78;5011341;28;20026;-58
2021/12/26 02:53:57;;;;;;;3.93;2.63;;;;;;;-3.50;82.82;100736.88;5011190;28;20096;-59
2021/12/26 02:56:23;;;;;;;8.13;2.93;;;;;;;-3.52;82.30;100740.03;5011310;28;20080;-59
2021/12/26 02:58:48;;;;;;;4.97;2.57;;;;;;;-3.52;83.61;100737.50;5010899;28;20076;-58
2021/12/26 03:01:17;;;;;;;5.13;3.00;;;;;;;-3.50;84.27;100739.41;5010945;28;20096;-59
2021/12/26 03:03:43;;;;;;;5.30;2.60;;;;;;;-3.49;84.31;100732.72;5011048;28;20060;-58
2021/12/26 03:06:35;;;;;;;4.17;2.47;;;;;;;-3.48;83.85;100744.63;5011116;28;20470;-59
2021/12/26 03:09:00;;;;;;;3.90;2.30;;;;;;;-3.49;83.75;100737.78;5010868;28;20079;-58
2021/12/26 03:11:26;;;;;;;5.20;2.83;;;;;;;-3.47;84.57;100743.84;5011297;28;20753;-58
2021/12/26 03:13:51;;;;;;;4.67;2.73;;;;;;;-3.44;85.25;100744.13;5010902;28;20026;-57
2021/12/26 03:16:17;;;;;;;3.47;2.53;;;;;;;-3.42;84.83;100744.25;5011065;28;20034;-57
2021/12/26 03:18:42;;;;;;;6.63;3.10;;;;;;;-3.41;84.75;100744.41;5010084;28;20022;-57
2021/12/26 03:21:08;;;;;;;5.00;2.80;;;;;;;-3.41;84.60;100744.41;5010870;28;20402;-57
2021/12/26 03:23:33;;;;;;;3.93;2.60;;;;;;;-3.38;84.65;100734.50;5010738;28;20064;-58
2021/12/26 03:26:03;;;;;;;3.00;2.30;;;;;;;-3.41;84.54;100719.06;5010775;28;20100;-58
2021/12/26 03:28:29;;;;;;;3.87;2.87;;;;;;;-3.41;84.48;100713.97;5010702;28;20029;-58
2021/12/26 03:30:57;;;;;;;2.93;2.20;;;;;;;-3.40;84.37;100710.69;5010414;28;20026;-58
2021/12/26 03:33:24;;;;;;;4.67;2.70;;;;;;;-3.45;83.79;100722.06;5010390;28;20061;-59
2021/12/26 03:35:49;;;;;;;4.03;2.67;;;;;;;-3.44;84.25;100718.78;5010478;28;20034;-57
2021/12/26 03:38:16;;;;;;;3.50;2.70;;;;;;;-3.49;84.48;100704.84;5010507;28;20079;-57
2021/12/26 03:40:43;;;;;;;4.03;3.10;;;;;;;-3.47;85.25;100712.56;5010355;28;20096;-57
2021/12/26 03:43:09;;;;;;;4.67;2.53;;;;;;;-3.55;85.02;100714.44;5009559;28;20026;-58
2021/12/26 03:45:35;;;;;;;3.60;2.27;;;;;;;-3.59;83.96;100718.34;4995878;28;20065;-57
2021/12/26 03:48:02;;;;;;;4.03;2.47;;;;;;;-3.59;83.60;100713.28;5010298;28;20026;-58
2021/12/26 03:50:30;;;;;;;3.33;2.67;;;;;;;-3.65;83.95;100713.63;5009629;28;20025;-59
2021/12/26 03:52:58;;;;;;;4.27;2.70;;;;;;;-3.65;84.47;100713.63;5010216;28;20073;-58
2021/12/26 03:55:25;;;;;;;2.80;2.07;;;;;;;-3.67;83.94;100715.13;5010372;28;20030;-57
2021/12/26 03:57:51;;;;;;;3.73;2.70;;;;;;;-3.72;83.81;100726.50;5009778;28;20026;-59
2021/12/26 04:00:17;;;;;;;4.23;2.53;;;;;;;-3.77;84.18;100718.50;5009774;28;20046;-59
2021/12/26 04:02:44;;;;;;;4.17;2.77;;;;;;;-3.80;84.34;100719.88;5009911;28;20025;-58
2021/12/26 04:05:10;;;;;;;3.90;3.07;;;;;;;-3.82;84.61;100714.69;5010310;28;20101;-58
2021/12/26 04:07:37;;;;;;;3.50;2.90;;;;;;;-3.83;84.89;100710.34;5010187;28;20478;-58
2021/12/26 04:10:06;;;;;;;5.30;2.73;;;;;;;-3.86;85.59;100708.47;5010069;28;20113;-58
2021/12/26 04:12:36;;;;;;;4.00;2.77;;;;;;;-3.84;86.10;100705.16;5009929;28;20044;-58
2021/12/26 04:15:06;;;;;;;3.30;3.00;;;;;;;-3.90;86.05;100706.41;5009859;28;20030;-57
2021/12/26 04:17:32;;;;;;;3.85;2.80;;;;;;;-3.86;86.41;100703.41;5009408;28;20026;-57
2021/12/26 04:19:57;;;;;;;3.23;2.67;;;;;;;-3.91;86.89;100697.03;5009792;28;20375;-58
2021/12/26 04:22:23;;;;;;;4.60;2.93;;;;;;;-3.90;86.26;100703.88;5009803;28;20030;-57
2021/12/26 04:24:48;;;;;;;3.40;2.60;;;;;;;-3.91;86.03;100701.22;5009729;28;20105;-59
2021/12/26 04:27:13;;;;;;;3.77;2.53;;;;;;;-3.93;86.35;100706.13;5009845;28;20057;-59
2021/12/26 04:29:39;;;;;;;4.70;3.03;;;;;;;-3.97;85.70;100704.06;5009870;28;20493;-57
2021/12/26 04:32:05;;;;;;;3.60;2.60;;;;;;;-4.05;86.75;100705.06;5009395;28;20038;-57
2021/12/26 04:34:30;;;;;;;3.40;3.10;;;;;;;-4.09;85.60;100703.88;5009742;28;20033;-57
2021/12/26 04:36:55;;;;;;;4.03;2.77;;;;;;;-4.13;85.91;100702.72;5009620;28;20493;-59
2021/12/26 04:39:21;;;;;;;5.53;3.40;;;;;;;-4.16;86.94;100694.88;5009847;28;20433;-57
2021/12/26 04:41:46;;;;;;;3.53;3.07;;;;;;;-4.16;87.16;100692.34;5009759;28;20037;-58
2021/12/26 04:44:12;;;;;;;3.93;2.60;;;;;;;-4.13;87.23;100697.66;5009173;28;20037;-59
2021/12/26 04:46:38;;;;;;;3.73;2.93;;;;;;;-4.12;87.62;100704.50;5009706;28;20037;-57
2021/12/26 04:49:03;;;;;;;3.73;2.67;;;;;;;-4.13;87.40;100702.72;5009399;28;20034;-57
2021/12/26 04:51:29;;;;;;;3.60;2.70;;;;;;;-4.15;87.53;100700.78;5010260;28;20036;-58
2021/12/26 04:53:55;;;;;;;5.07;3.37;;;;;;;-4.13;87.92;100696.75;5009339;28;20034;-57
2021/12/26 04:56:20;;;;;;;4.83;2.80;;;;;;;-4.19;87.81;100683.59;5009562;28;20030;-57
2021/12/26 04:58:45;;;;;;;4.87;3.00;;;;;;;-4.16;87.43;100681.31;5009638;28;20030;-58
2021/12/26 05:01:11;;;;;;;2.83;2.30;;;;;;;-4.16;88.36;100692.34;5009304;28;20066;-58
2021/12/26 05:03:37;;;;;;;4.33;2.73;;;;;;;-4.17;88.68;100685.47;5013047;28;20049;-58
2021/12/26 05:06:02;;;;;;;6.13;3.10;;;;;;;-4.18;88.31;100686.25;5013307;28;20458;-58
2021/12/26 05:08:28;;;;;;;4.07;2.80;;;;;;;-4.19;87.51;100688.66;5013141;28;20025;-57
2021/12/26 05:10:55;;;;;;;5.03;2.73;;;;;;;-4.22;87.56;100686.72;5013090;28;20163;-58
2021/12/26 05:13:21;;;;;;;4.90;2.70;;;;;;;-4.22;87.58;100692.69;5013592;28;20030;-58
2021/12/26 05:15:46;;;;;;;4.60;2.77;;;;;;;-4.23;88.68;100680.75;5013214;28;20418;-58
2021/12/26 05:18:11;;;;;;;4.97;3.13;;;;;;;-4.29;88.23;100681.84;5012971;28;20482;-59
2021/12/26 05:20:37;;;;;;;5.63;3.07;;;;;;;-4.27;88.96;100687.94;5013030;28;20109;-58
2021/12/26 05:23:04;;;;;;;3.67;2.73;;;;;;;-4.36;87.93;100681.31;5012760;28;20080;-56
2021/12/26 05:25:29;;;;;;;4.40;2.63;;;;;;;-4.34;87.64;100677.28;5012937;28;20113;-57
2021/12/26 05:27:55;;;;;;;4.60;2.90;;;;;;;-4.30;88.89;100682.63;5012873;28;20474;-59
2021/12/26 05:30:22;;;;;;;4.17;2.90;;;;;;;-4.29;88.98;100684.38;5012778;28;20121;-57
2021/12/26 05:32:48;;;;;;;4.80;2.90;;;;;;;-4.28;88.59;100681.13;5012390;28;20042;-57
2021/12/26 05:35:15;;;;;;;4.23;2.30;;;;;;;-4.28;88.46;100673.53;5012912;28;20036;-58
2021/12/26 05:37:41;;;;;;;3.80;2.97;;;;;;;-4.29;88.96;100675.16;5012828;28;20044;-57
2021/12/26 05:40:08;;;;;;;3.23;2.63;;;;;;;-4.32;88.24;100672.38;5012676;28;20037;-57
2021/12/26 05:42:34;;;;;;;4.40;2.87;;;;;;;-4.36;88.32;100666.13;5012393;28;20153;-59
2021/12/26 05:45:00;;;;;;;4.00;2.80;;;;;;;-4.39;87.60;100665.84;5012611;28;20121;-58
2021/12/26 05:47:26;;;;;;;3.17;2.83;;;;;;;-4.41;88.73;100663.94;5044222;28;20459;-57
2021/12/26 05:49:52;;;;;;;4.50;3.00;;;;;;;-4.43;88.27;100666.34;5012580;28;20034;-57
2021/12/26 05:52:18;;;;;;;4.03;2.90;;;;;;;-4.49;88.95;100660.72;5012247;28;20029;-58
2021/12/26 05:54:44;;;;;;;4.27;2.77;;;;;;;-4.50;88.63;100652.25;5012403;28;20536;-57
2021/12/26 05:57:09;;;;;;;4.33;3.17;;;;;;;-4.60;88.90;100657.22;5012469;28;20034;-57
2021/12/26 05:59:35;;;;;;;3.20;2.67;;;;;;;-4.59;89.61;100659.00;5012001;28;20092;-58
2021/12/26 06:02:00;;;;;;;3.67;2.97;;;;;;;-4.58;89.70;100649.03;5011969;28;20475;-58
2021/12/26 06:04:26;;;;;;;4.43;2.93;;;;;;;-4.59;90.46;100654.81;5012249;28;20026;-57
2021/12/26 06:06:52;;;;;;;4.20;2.97;;;;;;;-4.60;89.80;100653.06;5012396;28;20060;-56
2021/12/26 06:09:17;;;;;;;6.07;3.47;;;;;;;-4.67;90.04;100650.72;5012175;28;20297;-58
2021/12/26 06:11:43;;;;;;;3.33;2.80;;;;;;;-4.67;91.17;100644.75;5011893;28;20041;-58
2021/12/26 06:14:09;;;;;;;4.50;2.97;;;;;;;-4.68;91.06;100654.00;5011176;28;20037;-56
2021/12/26 06:16:34;;;;;;;4.17;2.90;;;;;;;-4.66;92.02;100655.03;5011604;28;20034;-57
2021/12/26 06:19:00;;;;;;;4.90;3.00;;;;;;;-4.67;91.43;100652.34;5011713;28;20030;-58
2021/12/26 06:21:25;;;;;;;3.77;3.13;;;;;;;-4.68;91.07;100648.97;5011771;28;20462;-59
2021/12/26 06:23:50;;;;;;;3.50;2.83;;;;;;;-4.74;90.80;100649.28;5010401;28;20030;-57
2021/12/26 06:26:17;;;;;;;4.13;3.27;;;;;;;-4.73;91.88;100643.47;5011515;28;20034;-57
2021/12/26 06:28:43;;;;;;;5.40;3.30;;;;;;;-4.72;91.68;100649.41;5011712;28;20029;-58
2021/12/26 06:31:08;;;;;;;5.70;3.10;;;;;;;-4.71;92.13;100652.09;5011218;28;20034;-56
2021/12/26 06:33:34;;;;;;;4.40;2.90;;;;;;;-4.71;91.65;100656.25;5011420;28;20036;-57
2021/12/26 06:35:59;;;;;;;4.57;3.50;;;;;;;-4.70;91.68;100648.81;5011596;28;20108;-56
2021/12/26 06:38:24;;;;;;;4.10;3.17;;;;;;;-4.70;91.28;100652.97;5011399;28;20439;-58
2021/12/26 06:40:50;;;;;;;3.83;3.07;;;;;;;-4.75;91.35;100650.00;5011693;28;20080;-56
2021/12/26 06:43:15;;;;;;;4.73;3.00;;;;;;;-4.74;91.29;100649.28;5011557;28;20383;-58
2021/12/26 06:45:41;;;;;;;5.33;3.43;;;;;;;-4.75;91.60;100656.75;5011442;28;20036;-58
2021/12/26 06:48:06;;;;;;;4.97;3.07;;;;;;;-4.76;91.17;100652.41;5011170;28;20080;-57
2021/12/26 06:50:32;;;;;;;5.40;3.10;;;;;;;-4.88;91.10;100650.56;5011699;28;20026;-57
2021/12/26 06:52:57;;;;;;;4.43;3.53;;;;;;;-4.88;91.24;100645.50;5011264;28;20541;-58
2021/12/26 06:55:23;;;;;;;4.67;3.10;;;;;;;-4.87;91.51;100651.44;5011411;28;20025;-57
2021/12/26 06:57:48;;;;;;;4.87;3.53;;;;;;;-4.87;92.22;100647.28;5011143;28;20044;-58
2021/12/26 07:00:16;;;;;;;4.13;3.27;;;;;;;-4.89;92.42;100653.81;5010747;28;20413;-58
2021/12/26 07:02:42;;;;;;;5.43;3.77;;;;;;;-4.95;92.13;100649.09;5010886;28;20297;-58
2021/12/26 07:05:11;;;;;;;3.67;3.10;;;;;;;-4.99;93.02;100646.16;5010893;28;20030;-56
2021/12/26 07:07:37;;;;;;;3.83;3.33;;;;;;;-4.97;93.01;100649.72;5011441;28;20529;-57
2021/12/26 07:10:03;;;;;;;5.90;4.37;;;;;;;-4.92;92.97;100647.59;5010466;28;20025;-59
2021/12/26 07:12:28;;;;;;;4.20;3.73;;;;;;;-4.90;93.72;100644.47;5011025;28;20044;-58
2021/12/26 07:14:54;;;;;;;6.67;4.00;;;;;;;-4.88;93.06;100648.03;5011014;28;20113;-57
2021/12/26 07:17:19;;;;;;;6.27;3.73;;;;;;;-4.86;93.19;100644.00;5010671;28;20526;-58
2021/12/26 07:19:45;;;;;;;4.37;3.80;;;;;;;-4.84;93.35;100647.53;5010762;28;20056;-56
2021/12/26 07:22:10;;;;;;;4.57;3.87;;;;;;;-4.88;93.08;100648.03;5010842;28;20029;-55
2021/12/26 07:24:35;;;;;;;6.40;3.90;;;;;;;-4.86;94.16;100658.28;5010552;28;20026;-57
2021/12/26 07:27:01;;;;;;;5.27;3.80;;;;;;;-4.86;93.58;100649.06;5010898;28;20034;-56
2021/12/26 07:29:26;;;;;;;5.97;4.10;;;;;;;-4.85;94.51;100650.84;5010526;28;20021;-56
2021/12/26 07:31:52;;;;;;;5.30;3.83;;;;;;;-4.87;94.42;100651.44;5010825;28;20029;-57
2021/12/26 07:34:17;;;;;;;6.33;4.07;;;;;;;-4.87;94.20;100648.91;5010474;28;20386;-58
2021/12/26 07:36:42;;;;;;;5.87;3.73;;;;;;;-4.85;94.21;100645.78;5009917;28;20029;-56
2021/12/26 07:39:08;;;;;;;7.53;4.13;;;;;;;-4.82;95.21;100638.47;5009363;28;20034;-57
2021/12/26 07:41:33;;;;;;;5.20;3.63;;;;;;;-4.77;95.08;100643.97;5008369;28;20030;-57
2021/12/26 07:44:00;;;;;;;7.80;4.13;;;;;;;-4.73;94.91;100648.53;5008223;28;20109;-56
2021/12/26 07:46:25;;;;;;;5.00;3.73;;;;;;;-4.71;95.43;100648.66;5008591;28;20366;-56
2021/12/26 07:48:51;;;;;;;4.93;3.53;;;;;;;-4.72;94.13;100645.25;5008863;28;20521;-55
2021/12/26 07:51:18;;;;;;;7.00;4.20;;;;;;;-4.68;94.46;100653.13;5010618;28;20506;-58
2021/12/26 07:53:44;;;;;;;6.47;4.30;;;;;;;-4.68;95.25;100641.38;5010276;28;20040;-58
2021/12/26 07:56:09;;;;;;;4.83;3.80;;;;;;;-4.65;95.10;100649.22;5010100;28;20639;-56
2021/12/26 07:58:34;;;;;;;5.40;4.17;;;;;;;-4.65;94.86;100655.91;5010119;28;20030;-55
2021/12/26 08:01:00;;;;;;;5.77;3.73;;;;;;;-4.64;95.87;100655.19;5010245;28;20053;-55
2021/12/26 08:03:25;;;;;;;4.83;3.63;;;;;;;-4.61;96.01;100655.44;5010501;28;20444;-57
2021/12/26 08:05:51;;;;;;;8.27;4.37;;;;;;;-4.59;96.47;100656.47;5008666;28;20038;-55
2021/12/26 08:08:16;;;;;;;7.03;4.07;;;;;;;-4.58;95.73;100665.84;5009417;28;20334;-55
2021/12/26 08:10:41;;;;;;;6.30;4.30;;;;;;;-4.55;97.14;100660.19;5009652;28;20038;-58
2021/12/26 08:13:07;;;;;;;6.17;4.30;;;;;;;-4.51;95.90;100659.69;5010157;28;20425;-57
2021/12/26 08:15:32;;;;;;;6.13;4.17;;;;;;;-4.48;95.99;100670.97;5010077;28;20036;-56
2021/12/26 08:17:57;;;;;;;6.50;4.37;;;;;;;-4.44;96.04;100664.53;5009504;28;20021;-58
2021/12/26 08:20:23;;;;;;;6.10;4.33;;;;;;;-4.43;96.45;100663.81;5009867;28;20033;-58
2021/12/26 08:22:48;;;;;;;7.53;4.27;;;;;;;-4.41;96.52;100667.38;5009881;28;20037;-58
2021/12/26 08:25:14;;;;;;;7.80;5.37;;;;;;;-4.38;96.26;100654.97;5010049;28;20030;-58
2021/12/26 08:27:39;;;;;;;6.20;4.47;;;;;;;-4.35;96.33;100656.88;5009403;28;20101;-58
2021/12/26 08:30:06;;;;;;;6.60;5.00;;;;;;;-4.30;96.76;100657.31;5009759;28;20350;-58
2021/12/26 08:32:34;;;;;;;9.47;5.00;;;;;;;-4.25;96.77;100656.97;5008211;28;20037;-58
2021/12/26 08:35:00;;;;;;;6.00;4.47;;;;;;;-4.20;96.06;100653.94;5009458;28;20041;-56
2021/12/26 08:37:27;;;;;;;5.67;4.50;;;;;;;-4.16;97.13;100656.00;5011755;28;20522;-58
2021/12/26 08:39:53;;;;;;;6.57;4.27;;;;;;;-4.13;96.90;100649.56;5013622;28;20030;-57
2021/12/26 08:42:19;;;;;;;9.83;4.87;;;;;;;-4.06;95.99;100655.16;5013606;28;20076;-56
2021/12/26 08:44:44;;;;;;;6.83;4.27;;;;;;;-4.03;96.37;100648.72;5013748;28;20034;-58
2021/12/26 08:47:11;;;;;;;8.97;4.43;;;;;;;-3.98;96.26;100656.75;5013157;28;20116;-58
2021/12/26 08:49:37;;;;;;;6.23;4.53;;;;;;;-3.94;96.05;100658.75;5013530;28;20474;-58
2021/12/26 08:52:03;;;;;;;6.73;4.70;;;;;;;-3.91;95.89;100654.00;5013563;28;20041;-59
2021/12/26 08:54:30;;;;;;;6.00;4.60;;;;;;;-3.86;95.99;100655.28;5013507;28;20117;-57
2021/12/26 08:56:56;;;;;;;7.33;4.53;;;;;;;-3.80;97.12;100651.50;5013459;28;20092;-57
2021/12/26 08:59:24;;;;;;;8.13;5.43;;;;;;;-3.74;97.07;100646.94;5013687;28;20037;-57
2021/12/26 09:01:50;;;;;;;6.60;4.93;;;;;;;-3.69;96.27;100653.31;5012761;28;20038;-58
2021/12/26 09:04:15;;;;;;;8.07;5.10;;;;;;;-3.63;95.60;100647.88;5013162;28;20497;-56
2021/12/26 09:06:41;;;;;;;8.07;5.10;;;;;;;-3.58;96.09;100649.16;5012957;28;20586;-57
2021/12/26 09:09:08;;;;;;;10.23;4.97;;;;;;;-3.55;96.22;100649.44;5013188;28;20050;-58
2021/12/26 09:11:34;;;;;;;7.37;5.03;;;;;;;-3.51;95.54;100636.25;5013044;28;20030;-56
2021/12/26 09:14:00;;;;;;;7.90;5.20;;;;;;;-3.47;95.46;100645.00;5013318;28;20485;-57
2021/12/26 09:16:31;;;;;;;6.30;4.43;;;;;;;-3.43;95.80;100648.69;5013164;28;20029;-57
2021/12/26 09:18:57;;;;;;;6.23;4.90;;;;;;;-3.40;95.42;100647.31;5012864;28;20030;-59
2021/12/26 09:21:22;;;;;;;5.57;4.53;;;;;;;-3.36;95.68;100650.13;5013050;28;20072;-57
2021/12/26 09:23:47;;;;;;;7.90;5.50;;;;;;;-3.32;95.86;100647.06;5013075;28;20092;-56
2021/12/26 09:26:13;;;;;;;8.40;5.10;;;;;;;-3.28;96.45;100649.13;5012429;28;20088;-57
2021/12/26 09:28:38;;;;;;;7.33;4.97;;;;;;;-3.23;96.34;100646.97;5012945;28;20022;-58
2021/12/26 09:31:04;;;;;;;6.47;4.73;;;;;;;-3.20;95.88;100643.03;5012853;28;20022;-58
2021/12/26 09:33:29;;;;;;;7.80;5.17;;;;;;;-3.16;95.62;100645.09;5013005;28;20108;-56
2021/12/26 09:35:55;;;;;;;6.47;5.03;;;;;;;-3.13;95.64;100640.28;5012807;28;20116;-56
2021/12/26 09:38:20;;;;;;;6.57;5.17;;;;;;;-3.13;94.87;100654.63;5012526;28;20045;-58
2021/12/26 09:40:46;;;;;;;6.90;5.33;;;;;;;-3.07;95.11;100639.91;5012693;28;20041;-57
2021/12/26 09:43:12;;;;;;;6.33;5.27;;;;;;;-3.05;94.92;100643.47;5012578;28;20092;-57
2021/12/26 09:45:38;;;;;;;7.07;5.37;;;;;;;-3.04;95.30;100639.28;5012421;28;20022;-57
2021/12/26 09:48:03;;;;;;;7.37;5.43;;;;;;;-3.03;95.44;100641.06;5012279;28;20030;-59
2021/12/26 09:50:29;;;;;;;8.20;5.30;;;;;;;-2.99;94.77;100643.09;5012633;28;20536;-57
2021/12/26 09:52:54;;;;;;;9.10;5.60;;;;;;;-2.95;95.53;100640.03;5011890;28;20099;-57
2021/12/26 09:55:21;;;;;;;7.23;5.17;;;;;;;-2.89;96.20;100639.66;5012740;28;20517;-59
2021/12/26 09:57:46;;;;;;;9.03;4.87;;;;;;;-2.83;96.27;100641.81;5012223;28;20030;-57
2021/12/26 10:00:23;;;;;;;8.73;6.27;;;;;;;-2.78;96.41;100641.44;5012380;28;20026;-58
2021/12/26 10:03:11;;;;;;;6.93;5.23;;;;;;;-2.72;96.12;100638.53;5012041;28;20121;-55
2021/12/26 10:06:10;;;;;;;8.33;5.40;;;;;;;-2.68;96.38;100640.53;5012807;28;20060;-58
2021/12/26 10:08:56;;;;;;;6.20;5.23;;;;;;;-2.66;95.52;100633.94;5011891;28;20506;-57
2021/12/26 10:11:26;;;;;;;7.83;5.60;;;;;;;-2.62;95.25;100631.66;5012096;28;20037;-58
2021/12/26 10:13:58;;;;;;;8.38;6.07;;;;;;;-2.57;95.61;100617.69;5012202;28;20432;-57
2021/12/26 10:16:24;;;;;;;;;;;;;;;-2.51;96.24;100617.31;5012478;28;20033;-59
2021/12/26 10:18:51;;;;;;;8.33;5.70;;;;;;;-2.45;96.08;100616.19;5011605;28;19917;-57
2021/12/26 10:21:38;;;;;;;11.00;5.87;;;;;;;-2.39;95.89;100612.34;5011940;28;20033;-58
2021/12/26 10:24:17;;;;;;;8.37;6.00;;;;;;;-2.42;95.73;100597.75;5011620;28;20033;-58
2021/12/26 10:26:48;;;;;;;8.73;5.93;;;;;;;-2.37;95.72;100596.47;5011786;28;20026;-56
2021/12/26 10:29:35;;;;;;;9.90;6.23;;;;;;;-2.34;95.71;100591.63;5011865;28;20041;-58
2021/12/26 10:32:08;;;;;;;9.70;6.33;;;;;;;-2.29;95.68;100599.63;5011592;28;20140;-58
2021/12/26 10:34:37;;;;;;;9.63;5.80;;;;;;;-2.30;95.49;100590.22;5011696;28;20021;-58
2021/12/26 10:37:07;;;;;;;8.37;6.20;;;;;;;-2.30;95.22;100588.59;5011465;28;20267;-57
2021/12/26 10:39:47;;;;;;;7.87;6.07;;;;;;;-2.26;96.51;100587.16;5011552;28;20030;-57
2021/12/26 10:42:16;;;;;;;8.57;5.90;;;;;;;-2.23;96.01;100589.94;5011763;28;20026;-58
2021/12/26 10:44:57;;;;;;;9.33;6.13;;;;;;;-2.19;95.88;100581.81;5011066;28;20168;-57
2021/12/26 10:47:26;;;;;;;8.70;6.23;;;;;;;-2.14;96.51;100583.84;5011484;28;20029;-57
2021/12/26 10:49:53;;;;;;;7.93;6.90;;;;;;;-2.10;96.69;100588.38;5012101;28;20273;-57
2021/12/26 10:52:22;;;;;;;9.77;7.27;;;;;;;-2.08;97.42;100580.13;5011556;28;20087;-57
2021/12/26 10:54:50;;;;;;;8.73;6.77;;;;;;;-2.03;96.47;100579.63;5011712;28;20021;-58
2021/12/26 10:57:28;;;;;;;9.50;7.13;;;;;;;-2.00;96.68;100572.22;5011163;28;20036;-57
2021/12/26 11:00:01;;;;;;;10.20;7.30;;;;;;;-1.96;97.44;100579.34;5010747;28;20072;-58
2021/12/26 11:02:29;;;;;;;9.13;6.93;;;;;;;-1.92;97.91;100583.88;5010643;28;20049;-58
2021/12/26 11:05:00;;;;;;;10.23;7.10;;;;;;;-1.92;96.75;100573.72;5011151;28;20095;-57
2021/12/26 11:07:25;;;;;;;8.90;7.05;;;;;;;-1.87;97.08;100569.88;5011407;28;20363;-56
2021/12/26 11:10:06;;;;;;;8.17;6.50;;;;;;;-1.82;97.38;100557.53;5010814;28;20036;-57
2021/12/26 11:12:37;;;;;;;10.48;7.35;;;;;;;-1.79;97.14;100557.78;5012135;28;20022;-56
2021/12/26 11:15:03;;;;;;;;;;;;;;;-1.76;97.07;100558.00;5010978;28;20038;-57
2021/12/26 11:17:35;;;;;;;9.50;6.53;;;;;;;-1.73;97.40;100548.09;5012387;28;19917;-56
2021/12/26 11:20:02;;;;;;;9.33;6.87;;;;;;;-1.67;97.98;100556.97;5011059;28;20455;-56
2021/12/26 11:22:28;;;;;;;8.60;7.27;;;;;;;-1.65;97.24;100552.84;5005005;28;20109;-57
2021/12/26 11:24:53;;;;;;;9.73;7.87;;;;;;;-1.62;97.66;100560.75;5008363;28;20176;-57
2021/12/26 11:27:22;;;;;;;9.57;7.77;;;;;;;-1.57;97.84;100567.97;5008276;28;20355;-58
2021/12/26 11:29:52;;;;;;;10.37;7.70;;;;;;;-1.54;97.63;100556.22;5009332;28;20287;-55
2021/12/26 11:32:19;;;;;;;10.57;8.30;;;;;;;-1.54;97.45;100549.50;5008351;28;20041;-57
2021/12/26 11:34:49;;;;;;;11.27;7.63;;;;;;;-1.52;97.14;100557.22;5004901;28;20033;-58